Time;durP1;ratioP1;P1;durP2;ratioP2;P2;SDS_P1;SDS_P2;PMS_P1;PMS_P2;Temp;Humidity;BMP_temperature;BMP_pressure;BME280_temperature;BME280_humidity;BME280_pressure;Samples;Min_cycle;Max_cycle;Signal;HPM_P1;HPM_P2
2023/07/23 00:01:16;;;;;;;;;;;15.60;99.90;;;;;;5036022;28;20003;-85
2023/07/23 00:03:42;;;;;;;;;;;15.50;99.90;;;;;;5053384;28;19954;-85
2023/07/23 00:06:08;;;;;;;;;;;15.30;99.90;;;;;;5035672;28;20394;-84
2023/07/23 00:08:33;;;;;;;;;;;15.10;99.90;;;;;;5035842;28;19909;-85
2023/07/23 00:10:59;;;;;;;;;;;14.90;99.90;;;;;;5052299;28;19915;-85
2023/07/23 00:13:25;;;;;;;;;;;14.80;99.90;;;;;;5035418;28;19948;-85
2023/07/23 00:15:50;;;;;;;;;;;14.60;99.90;;;;;;5051966;28;19920;-85
2023/07/23 00:18:16;;;;;;;;;;;14.60;99.90;;;;;;5052094;28;19905;-85
2023/07/23 00:20:41;;;;;;;;;;;14.50;99.90;;;;;;5052549;28;19951;-85
2023/07/23 00:23:07;;;;;;;;;;;14.50;99.90;;;;;;5035624;28;19916;-84
2023/07/23 00:25:33;;;;;;;;;;;14.40;99.90;;;;;;5051959;28;19920;-85
2023/07/23 00:27:58;;;;;;;;;;;14.40;99.90;;;;;;5035803;28;19909;-84
2023/07/23 00:30:24;;;;;;;;;;;14.40;99.90;;;;;;5047435;28;20314;-85
2023/07/23 00:32:49;;;;;;;;;;;14.30;99.90;;;;;;5051899;28;19909;-85
2023/07/23 00:35:15;;;;;;;;;;;14.20;99.90;;;;;;5051806;28;19966;-85
2023/07/23 00:37:41;;;;;;;;;;;14.10;99.90;;;;;;5051747;28;19916;-84
2023/07/23 00:40:07;;;;;;;;;;;14.00;99.90;;;;;;5051848;28;20318;-84
2023/07/23 00:42:34;;;;;;;;;;;13.90;99.90;;;;;;5051628;28;19995;-84
2023/07/23 00:44:59;;;;;;;;;;;13.90;99.90;;;;;;5034780;28;20394;-84
2023/07/23 00:47:25;;;;;;;;;;;13.80;99.90;;;;;;5051807;28;19908;-85
2023/07/23 00:49:51;;;;;;;;;;;13.80;99.90;;;;;;5035854;28;19913;-85
2023/07/23 00:52:17;;;;;;;;;;;13.70;99.90;;;;;;5035488;28;20000;-84
2023/07/23 00:54:42;;;;;;;;;;;13.70;99.90;;;;;;5035601;28;19912;-86
2023/07/23 00:57:09;;;;;;;;;;;13.70;99.90;;;;;;5035196;28;19913;-86
2023/07/23 00:59:34;;;;;;;;;;;13.60;99.90;;;;;;5035040;28;19958;-86
2023/07/23 01:02:00;;;;;;;;;;;13.50;99.90;;;;;;5051741;28;19908;-86
2023/07/23 01:04:26;;;;;;;;;;;13.40;99.90;;;;;;5035053;28;19940;-86
2023/07/23 01:06:53;;;;;;;;;;;13.30;99.90;;;;;;5051421;28;19908;-86
2023/07/23 01:09:20;;;;;;;;;;;13.20;99.90;;;;;;5037128;28;19915;-86
2023/07/23 01:11:45;;;;;;;;;;;13.20;99.90;;;;;;5055338;28;19904;-86
2023/07/23 01:14:11;;;;;;;;;;;13.10;99.90;;;;;;5038845;28;19920;-85
2023/07/23 01:16:40;;;;;;;;;;;13.10;99.90;;;;;;5055603;28;20006;-86
2023/07/23 01:19:07;;;;;;;;;;;13.00;99.90;;;;;;5038997;28;20253;-86
2023/07/23 01:21:32;;;;;;;;;;;12.90;99.90;;;;;;5055627;28;19909;-86
2023/07/23 01:23:58;;;;;;;;;;;12.90;99.90;;;;;;5039082;28;19909;-86
2023/07/23 01:26:24;;;;;;;;;;;12.90;99.90;;;;;;5055616;28;20630;-86
2023/07/23 01:28:49;;;;;;;;;;;12.90;99.90;;;;;;5038662;28;20290;-86
2023/07/23 01:31:15;;;;;;;;;;;12.90;99.90;;;;;;5035084;28;19917;-86
2023/07/23 01:33:41;;;;;;;;;;;12.90;99.90;;;;;;5055426;28;19908;-86
2023/07/23 01:36:07;;;;;;;;;;;12.90;99.90;;;;;;5034797;28;19916;-86
2023/07/23 01:38:32;;;;;;;;;;;12.90;99.90;;;;;;5071788;28;19909;-86
2023/07/23 01:40:58;;;;;;;;;;;12.80;99.90;;;;;;5038813;28;20007;-86
2023/07/23 01:43:24;;;;;;;;;;;12.80;99.90;;;;;;5064902;28;19959;-86
2023/07/23 01:45:50;;;;;;;;;;;12.70;99.90;;;;;;5072547;28;19970;-86
2023/07/23 01:48:22;;;;;;;;;;;12.70;99.90;;;;;;5056374;28;20150;-84
2023/07/23 01:50:48;;;;;;;;;;;12.60;99.90;;;;;;5073001;28;20271;-85
2023/07/23 01:53:14;;;;;;;;;;;12.60;99.90;;;;;;5043879;28;19912;-86
2023/07/23 01:55:45;;;;;;;;;;;12.50;99.90;;;;;;5059105;28;19913;-85
2023/07/23 01:58:11;;;;;;;;;;;12.50;99.90;;;;;;5079387;28;19909;-86
2023/07/23 02:01:03;;;;;;;;;;;12.40;99.90;;;;;;5041280;28;19947;-85
2023/07/23 02:03:29;;;;;;;;;;;12.30;99.90;;;;;;5049004;28;19909;-85
2023/07/23 02:06:04;;;;;;;;;;;12.30;99.90;;;;;;5055560;28;19912;-86
2023/07/23 02:08:30;;;;;;;;;;;12.30;99.90;;;;;;5056678;28;20363;-86
2023/07/23 02:11:00;;;;;;;;;;;12.20;99.90;;;;;;5038670;28;20015;-86
2023/07/23 02:13:26;;;;;;;;;;;12.30;99.90;;;;;;5055864;28;19915;-86
2023/07/23 02:15:52;;;;;;;;;;;12.20;99.90;;;;;;5038600;28;20647;-86
2023/07/23 02:18:17;;;;;;;;;;;12.20;99.90;;;;;;5038304;28;20007;-86
2023/07/23 02:20:43;;;;;;;;;;;12.10;99.90;;;;;;5036828;28;20007;-86
2023/07/23 02:23:08;;;;;;;;;;;12.10;99.90;;;;;;5037958;28;19915;-86
2023/07/23 02:25:39;;;;;;;;;;;12.00;99.90;;;;;;5055619;28;19908;-86
2023/07/23 02:28:05;;;;;;;;;;;12.10;99.90;;;;;;5054569;28;20275;-86
2023/07/23 02:30:31;;;;;;;;;;;12.10;99.90;;;;;;5037848;28;19904;-86
2023/07/23 02:32:56;;;;;;;;;;;12.00;99.90;;;;;;5083414;28;19909;-86
2023/07/23 02:35:22;;;;;;;;;;;12.00;99.90;;;;;;5037428;28;19939;-86
2023/07/23 02:37:48;;;;;;;;;;;11.90;99.90;;;;;;5053652;28;19909;-85
2023/07/23 02:40:13;;;;;;;;;;;11.90;99.90;;;;;;5033268;28;19909;-85
2023/07/23 02:42:39;;;;;;;;;;;11.90;99.90;;;;;;5054200;28;19909;-85
2023/07/23 02:45:05;;;;;;;;;;;11.80;99.90;;;;;;5053914;28;19954;-85
2023/07/23 02:47:30;;;;;;;;;;;11.80;99.90;;;;;;5037301;28;19909;-86
2023/07/23 02:49:57;;;;;;;;;;;11.70;99.90;;;;;;5036096;28;19954;-85
2023/07/23 02:52:23;;;;;;;;;;;11.70;99.90;;;;;;5053817;28;19909;-85
2023/07/23 02:54:49;;;;;;;;;;;11.70;99.90;;;;;;5053697;28;19920;-86
2023/07/23 02:57:15;;;;;;;;;;;11.60;99.90;;;;;;5036991;28;20271;-86
2023/07/23 02:59:40;;;;;;;;;;;11.60;99.90;;;;;;5036995;28;19915;-86
2023/07/23 03:02:06;;;;;;;;;;;11.60;99.90;;;;;;5053242;28;19980;-85
2023/07/23 03:04:44;;;;;;;;;;;11.60;99.90;;;;;;5036831;28;19909;-86
2023/07/23 03:07:09;;;;;;;;;;;11.50;99.90;;;;;;5053096;28;19909;-86
2023/07/23 03:09:35;;;;;;;;;;;11.50;99.90;;;;;;5036446;28;20043;-85
2023/07/23 03:12:01;;;;;;;;;;;11.50;99.90;;;;;;5052921;28;20367;-86
2023/07/23 03:14:26;;;;;;;;;;;11.50;99.90;;;;;;5036634;28;19912;-85
2023/07/23 03:16:52;;;;;;;;;;;11.40;99.90;;;;;;5052900;28;19915;-85
2023/07/23 03:19:17;;;;;;;;;;;11.40;99.90;;;;;;5036658;28;19958;-86
2023/07/23 03:21:43;;;;;;;;;;;11.40;99.90;;;;;;5053336;28;20263;-85
2023/07/23 03:24:08;;;;;;;;;;;11.40;99.90;;;;;;5036459;28;19916;-85
2023/07/23 03:26:34;;;;;;;;;;;11.40;99.90;;;;;;5052165;28;19920;-86
2023/07/23 03:28:59;;;;;;;;;;;11.40;99.90;;;;;;5053344;28;20375;-86
2023/07/23 03:31:25;;;;;;;;;;;11.30;99.90;;;;;;5036675;28;19955;-86
2023/07/23 03:33:51;;;;;;;;;;;11.40;99.90;;;;;;5048912;28;19912;-85
2023/07/23 03:36:16;;;;;;;;;;;11.40;99.90;;;;;;5052921;28;19912;-86
2023/07/23 03:38:42;;;;;;;;;;;11.30;99.90;;;;;;5054360;28;19979;-86
2023/07/23 03:41:09;;;;;;;;;;;11.30;99.90;;;;;;5052952;28;19998;-85
2023/07/23 03:43:38;;;;;;;;;;;11.30;99.90;;;;;;5036402;28;19916;-85
2023/07/23 03:46:03;;;;;;;;;;;11.20;99.90;;;;;;5066950;28;19913;-86
2023/07/23 03:48:29;;;;;;;;;;;11.20;99.90;;;;;;5052509;28;19996;-86
2023/07/23 03:50:54;;;;;;;;;;;11.20;99.90;;;;;;5052332;28;19912;-86
2023/07/23 03:53:35;;;;;;;;;;;11.30;99.90;;;;;;5036042;28;19913;-86
2023/07/23 03:56:01;;;;;;;;;;;11.30;99.90;;;;;;5052212;28;19916;-86
2023/07/23 03:58:26;;;;;;;;;;;11.30;99.90;;;;;;5035438;28;19909;-85
2023/07/23 04:00:52;;;;;;;;;;;11.30;99.90;;;;;;5051903;28;19909;-85
2023/07/23 04:03:17;;;;;;;;;;;11.30;99.90;;;;;;5035159;28;20420;-85
2023/07/23 04:05:43;;;;;;;;;;;11.40;99.90;;;;;;5052266;28;19912;-86
2023/07/23 04:08:08;;;;;;;;;;;11.40;99.90;;;;;;5035628;28;20004;-85
2023/07/23 04:10:35;;;;;;;;;;;11.40;99.90;;;;;;5052457;28;20679;-86
2023/07/23 04:13:03;;;;;;;;;;;11.50;99.90;;;;;;5018985;28;20383;-86
2023/07/23 04:15:54;;;;;;;;;;;11.70;99.90;;;;;;5035373;28;19932;-85
2023/07/23 04:18:19;;;;;;;;;;;11.70;99.90;;;;;;5060643;28;20390;-83
2023/07/23 04:20:45;;;;;;;;;;;11.90;99.90;;;;;;5035020;28;19946;-86
2023/07/23 04:23:11;;;;;;;;;;;11.90;99.90;;;;;;5052075;28;19909;-86
2023/07/23 04:25:36;;;;;;;;;;;12.00;99.90;;;;;;5035396;28;19916;-86
2023/07/23 04:28:03;;;;;;;;;;;12.20;99.90;;;;;;5052563;28;19996;-86
2023/07/23 04:30:30;;;;;;;;;;;12.30;99.90;;;;;;5035775;28;19928;-86
2023/07/23 04:32:55;;;;;;;;;;;12.50;99.90;;;;;;5085991;28;19916;-86
2023/07/23 04:35:21;;;;;;;;;;;12.60;99.90;;;;;;5051732;28;19916;-86
2023/07/23 04:37:47;;;;;;;;;;;12.80;99.90;;;;;;5052502;28;19913;-86
2023/07/23 04:40:12;;;;;;;;;;;13.10;99.90;;;;;;5035574;28;19904;-86
2023/07/23 04:42:38;;;;;;;;;;;13.40;99.90;;;;;;5035561;28;20003;-87
2023/07/23 04:45:04;;;;;;;;;;;13.80;99.90;;;;;;5035144;28;20315;-86
2023/07/23 04:47:29;;;;;;;;;;;14.20;99.90;;;;;;5052581;28;19947;-86
2023/07/23 04:50:30;;;;;;;;;;;14.40;99.90;;;;;;5035725;28;19908;-87
2023/07/23 04:52:55;;;;;;;;;;;14.70;99.90;;;;;;5040835;28;19908;-86
2023/07/23 04:55:21;;;;;;;;;;;14.90;99.90;;;;;;5085719;28;19916;-86
2023/07/23 04:57:47;;;;;;;;;;;15.10;99.90;;;;;;5035751;28;19916;-86
2023/07/23 05:00:12;;;;;;;;;;;15.30;99.90;;;;;;5064478;28;19909;-86
2023/07/23 05:02:38;;;;;;;;;;;15.40;99.90;;;;;;5070647;28;19922;-86
2023/07/23 05:05:04;;;;;;;;;;;15.60;99.90;;;;;;5072611;28;19980;-86
2023/07/23 05:07:29;;;;;;;;;;;15.80;99.90;;;;;;5064115;28;19919;-86
2023/07/23 05:09:55;;;;;;;;;;;16.10;99.90;;;;;;5053363;28;19908;-87
2023/07/23 05:12:20;;;;;;;;;;;16.30;99.90;;;;;;5052104;28;19934;-86
2023/07/23 05:14:47;;;;;;;;;;;16.70;99.90;;;;;;5052914;28;19967;-86
2023/07/23 05:17:13;;;;;;;;;;;17.00;99.90;;;;;;5036340;28;19909;-86
2023/07/23 05:19:45;;;;;;;;;;;17.20;99.90;;;;;;5059872;28;20379;-86
2023/07/23 05:22:10;;;;;;;;;;;17.30;99.90;;;;;;5052333;28;19908;-83
2023/07/23 05:24:37;;;;;;;;;;;17.50;99.90;;;;;;5052227;28;19916;-87
2023/07/23 05:27:03;;;;;;;;;;;17.60;99.90;;;;;;5051854;28;19913;-86
2023/07/23 05:29:28;;;;;;;;;;;17.80;99.90;;;;;;5035171;28;20000;-86
2023/07/23 05:32:15;;;;;;;;;;;18.00;99.90;;;;;;5052120;28;19905;-87
2023/07/23 05:35:00;;;;;;;;;;;18.20;99.90;;;;;;5068534;28;19944;-87
2023/07/23 05:37:26;;;;;;;;;;;18.10;99.90;;;;;;5080580;28;19909;-86
2023/07/23 05:39:53;;;;;;;;;;;18.00;99.90;;;;;;5053093;28;20316;-87
2023/07/23 05:42:19;;;;;;;;;;;18.00;99.90;;;;;;5051658;28;20280;-87
2023/07/23 05:44:44;;;;;;;;;;;17.90;99.90;;;;;;5052732;28;19920;-86
2023/07/23 05:47:10;;;;;;;;;;;17.90;99.90;;;;;;5051931;28;19909;-86
2023/07/23 05:49:36;;;;;;;;;;;17.90;99.90;;;;;;5035526;28;19966;-84
2023/07/23 05:52:02;;;;;;;;;;;17.90;99.90;;;;;;5049595;28;19904;-86
2023/07/23 05:54:28;;;;;;;;;;;17.80;99.90;;;;;;5047793;28;20362;-86
2023/07/23 05:56:53;;;;;;;;;;;17.80;99.90;;;;;;5033436;28;20027;-85
2023/07/23 05:59:19;;;;;;;;;;;17.70;99.90;;;;;;5055031;28;19927;-86
2023/07/23 06:01:45;;;;;;;;;;;17.70;99.90;;;;;;5037468;28;19908;-87
2023/07/23 06:04:11;;;;;;;;;;;17.70;99.90;;;;;;5052685;28;19908;-86
2023/07/23 06:06:36;;;;;;;;;;;17.70;99.90;;;;;;5037190;28;20063;-86
2023/07/23 06:09:03;;;;;;;;;;;17.80;99.90;;;;;;5037566;28;19912;-86
2023/07/23 06:11:29;;;;;;;;;;;17.90;99.90;;;;;;5037927;28;20283;-86
2023/07/23 06:13:55;;;;;;;;;;;17.90;99.90;;;;;;5036919;28;19908;-86
2023/07/23 06:16:21;;;;;;;;;;;17.90;99.90;;;;;;5064257;28;20378;-86
2023/07/23 06:18:46;;;;;;;;;;;17.90;99.90;;;;;;5052994;28;19908;-86
2023/07/23 06:21:12;;;;;;;;;;;17.90;99.90;;;;;;5029221;28;20507;-87
2023/07/23 06:23:38;;;;;;;;;;;18.00;99.90;;;;;;5036850;28;19956;-86
2023/07/23 06:26:03;;;;;;;;;;;18.10;99.90;;;;;;5036239;28;19909;-86
2023/07/23 06:28:30;;;;;;;;;;;18.20;99.90;;;;;;5051237;28;19908;-86
2023/07/23 06:30:56;;;;;;;;;;;18.20;99.90;;;;;;5050362;28;19909;-86
2023/07/23 06:33:21;;;;;;;;;;;18.20;99.90;;;;;;5050682;28;19909;-85
2023/07/23 06:35:48;;;;;;;;;;;18.30;99.90;;;;;;5028239;28;19956;-86
2023/07/23 06:38:14;;;;;;;;;;;18.30;99.90;;;;;;5036652;28;19963;-87
2023/07/23 06:40:46;;;;;;;;;;;18.40;99.90;;;;;;5036791;28;19967;-87
2023/07/23 06:43:12;;;;;;;;;;;18.70;99.90;;;;;;5054082;28;19909;-86
2023/07/23 06:45:37;;;;;;;;;;;18.90;99.90;;;;;;5051461;28;19919;-86
2023/07/23 06:48:03;;;;;;;;;;;19.10;99.90;;;;;;5063902;28;19973;-86
2023/07/23 06:50:31;;;;;;;;;;;19.10;99.90;;;;;;5037103;28;19917;-86
2023/07/23 06:52:56;;;;;;;;;;;18.90;99.90;;;;;;5053701;28;19919;-83
2023/07/23 06:55:22;;;;;;;;;;;18.80;99.90;;;;;;5052842;28;19917;-83
2023/07/23 06:57:48;;;;;;;;;;;18.80;99.90;;;;;;5053789;28;20351;-83
2023/07/23 07:00:14;;;;;;;;;;;18.70;99.90;;;;;;5053817;28;19909;-82
2023/07/23 07:02:40;;;;;;;;;;;18.70;99.90;;;;;;5037281;28;19912;-83
2023/07/23 07:05:05;;;;;;;;;;;18.50;99.90;;;;;;5036905;28;19909;-82
2023/07/23 07:07:31;;;;;;;;;;;18.40;99.90;;;;;;5052575;28;19999;-83
2023/07/23 07:09:57;;;;;;;;;;;18.20;99.90;;;;;;5053873;28;19932;-82
2023/07/23 07:12:36;;;;;;;;;;;18.20;99.90;;;;;;5052107;28;20336;-82
2023/07/23 07:15:02;;;;;;;;;;;18.30;99.90;;;;;;5052925;28;20351;-82
2023/07/23 07:17:28;;;;;;;;;;;18.60;99.90;;;;;;5052806;28;19967;-82
2023/07/23 07:19:53;;;;;;;;;;;18.70;99.90;;;;;;5036269;28;19908;-82
2023/07/23 07:22:32;;;;;;;;;;;19.00;99.90;;;;;;5053961;28;19915;-82
2023/07/23 07:24:58;;;;;;;;;;;19.10;99.90;;;;;;5080556;28;20371;-83
2023/07/23 07:27:24;;;;;;;;;;;19.30;99.90;;;;;;5035515;28;20004;-82
2023/07/23 07:29:49;;;;;;;;;;;19.40;99.90;;;;;;5052902;28;20443;-82
2023/07/23 07:32:15;;;;;;;;;;;19.50;99.90;;;;;;5036321;28;20378;-83
2023/07/23 07:34:40;;;;;;;;;;;19.80;99.90;;;;;;5052548;28;20279;-83
2023/07/23 07:37:06;;;;;;;;;;;19.90;99.90;;;;;;5052762;28;19950;-82
2023/07/23 07:39:32;;;;;;;;;;;19.70;99.90;;;;;;5053272;28;19982;-83
2023/07/23 07:41:58;;;;;;;;;;;19.80;99.90;;;;;;5052906;28;19919;-83
2023/07/23 07:44:24;;;;;;;;;;;19.90;99.90;;;;;;5052920;28;19909;-83
2023/07/23 07:46:49;;;;;;;;;;;20.40;99.90;;;;;;5052793;28;20271;-83
2023/07/23 07:49:15;;;;;;;;;;;20.70;99.90;;;;;;5052973;28;19963;-83
2023/07/23 07:51:43;;;;;;;;;;;20.60;99.90;;;;;;5052905;28;19931;-83
2023/07/23 07:54:09;;;;;;;;;;;20.50;99.90;;;;;;5054419;28;20019;-83
2023/07/23 07:56:35;;;;;;;;;;;20.80;99.90;;;;;;5036043;28;19999;-83
2023/07/23 07:59:01;;;;;;;;;;;21.20;99.90;;;;;;5036240;28;19944;-83
2023/07/23 08:01:26;;;;;;;;;;;21.50;99.90;;;;;;5042605;28;19912;-82
2023/07/23 08:03:52;;;;;;;;;;;21.80;99.90;;;;;;5055063;28;20348;-82
2023/07/23 08:06:26;;;;;;;;;;;21.40;99.90;;;;;;5053422;28;19916;-82
2023/07/23 08:08:53;;;;;;;;;;;21.40;99.90;;;;;;5053839;28;19909;-82
2023/07/23 08:11:20;;;;;;;;;;;21.40;99.90;;;;;;5052818;28;19921;-83
2023/07/23 08:13:46;;;;;;;;;;;21.80;99.90;;;;;;5054322;28;19937;-83
2023/07/23 08:16:36;;;;;;;;;;;22.10;99.90;;;;;;5036306;28;20058;-83
2023/07/23 08:19:02;;;;;;;;;;;21.90;99.90;;;;;;5051846;28;20327;-83
2023/07/23 08:21:28;;;;;;;;;;;21.60;99.90;;;;;;5085972;28;19913;-83
2023/07/23 08:23:57;;;;;;;;;;;21.40;99.90;;;;;;5052533;28;19915;-83
2023/07/23 08:26:25;;;;;;;;;;;21.30;99.90;;;;;;5052008;28;19916;-82
2023/07/23 08:28:53;;;;;;;;;;;21.30;99.90;;;;;;5018845;28;20291;-82
2023/07/23 08:31:19;;;;;;;;;;;21.30;99.90;;;;;;5053086;28;20363;-82
2023/07/23 08:33:46;;;;;;;;;;;21.40;99.90;;;;;;5052654;28;19909;-82
2023/07/23 08:36:12;;;;;;;;;;;21.50;99.90;;;;;;5051560;28;19919;-82
2023/07/23 08:38:38;;;;;;;;;;;21.70;99.90;;;;;;5035049;28;19917;-83
2023/07/23 08:41:10;;;;;;;;;;;21.40;99.90;;;;;;5051682;28;19913;-83
2023/07/23 08:43:38;;;;;;;;;;;21.20;99.90;;;;;;5052621;28;19909;-83
2023/07/23 08:46:04;;;;;;;;;;;20.80;99.90;;;;;;5053064;28;19912;-83
2023/07/23 08:48:48;;;;;;;;;;;20.80;99.90;;;;;;5053178;28;19916;-82
2023/07/23 08:51:14;;;;;;;;;;;21.40;99.90;;;;;;5035312;28;20003;-83
2023/07/23 08:53:40;;;;;;;;;;;21.80;99.90;;;;;;5052975;28;19912;-82
2023/07/23 08:56:15;;;;;;;;;;;22.10;99.90;;;;;;5034683;28;19920;-83
2023/07/23 08:58:42;;;;;;;;;;;22.50;99.90;;;;;;5052905;28;19917;-83
2023/07/23 09:01:09;;;;;;;;;;;23.20;99.90;;;;;;5052347;28;20387;-83
2023/07/23 09:03:34;;;;;;;;;;;24.00;99.90;;;;;;5051344;28;19916;-83
2023/07/23 09:06:00;;;;;;;;;;;25.10;99.90;;;;;;5034981;28;20356;-83
2023/07/23 09:08:25;;;;;;;;;;;25.20;99.90;;;;;;5052712;28;20629;-83
2023/07/23 09:10:51;;;;;;;;;;;24.60;99.90;;;;;;5051077;28;20628;-83
2023/07/23 09:13:17;;;;;;;;;;;24.30;99.90;;;;;;5051560;28;19905;-84
2023/07/23 09:15:51;;;;;;;;;;;24.20;99.90;;;;;;5047480;28;19942;-86
2023/07/23 09:18:18;;;;;;;;;;;24.00;99.90;;;;;;5046404;28;19916;-86
2023/07/23 09:20:47;;;;;;;;;;;24.10;99.90;;;;;;5035640;28;19916;-86
2023/07/23 09:23:13;;;;;;;;;;;24.20;99.90;;;;;;5034970;28;19915;-87
2023/07/23 09:25:39;;;;;;;;;;;25.30;99.90;;;;;;5034578;28;19909;-86
2023/07/23 09:28:04;;;;;;;;;;;26.70;99.90;;;;;;5063916;28;19917;-86
2023/07/23 09:30:30;;;;;;;;;;;26.60;99.90;;;;;;5050102;28;19967;-87
2023/07/23 09:32:57;;;;;;;;;;;26.80;99.90;;;;;;5052417;28;19904;-87
2023/07/23 09:35:23;;;;;;;;;;;26.10;99.90;;;;;;5055020;28;19921;-86
2023/07/23 09:37:59;;;;;;;;;;;25.40;99.90;;;;;;5086833;28;19959;-86
2023/07/23 09:40:49;;;;;;;;;;;24.30;99.90;;;;;;5079275;28;19963;-86
2023/07/23 09:43:14;;;;;;;;;;;23.90;99.90;;;;;;5054592;28;20133;-86
2023/07/23 09:45:41;;;;;;;;;;;23.80;99.90;;;;;;5048253;28;19952;-86
2023/07/23 09:48:07;;;;;;;;;;;23.90;99.90;;;;;;5067303;28;19915;-86
2023/07/23 09:50:33;;;;;;;;;;;23.50;99.90;;;;;;5048835;28;19909;-86
2023/07/23 09:52:59;;;;;;;;;;;23.50;99.90;;;;;;5038786;28;20322;-86
2023/07/23 09:55:24;;;;;;;;;;;23.60;99.90;;;;;;5031969;28;19908;-86
2023/07/23 09:57:51;;;;;;;;;;;23.90;99.90;;;;;;5048480;28;19915;-86
2023/07/23 10:00:17;;;;;;;;;;;24.10;99.90;;;;;;5053130;28;19915;-86
2023/07/23 10:02:45;;;;;;;;;;;24.20;99.90;;;;;;5049838;28;19966;-86
2023/07/23 10:05:12;;;;;;;;;;;23.70;99.90;;;;;;5037921;28;20364;-86
2023/07/23 10:07:38;;;;;;;;;;;23.60;99.90;;;;;;5081329;28;20030;-86
2023/07/23 10:10:05;;;;;;;;;;;23.40;99.90;;;;;;5055558;28;19908;-86
2023/07/23 10:12:31;;;;;;;;;;;23.10;99.90;;;;;;5033561;28;20004;-86
2023/07/23 10:15:09;;;;;;;;;;;23.00;99.90;;;;;;5029486;28;20011;-86
2023/07/23 10:17:40;;;;;;;;;;;23.00;99.90;;;;;;5082931;28;19913;-86
2023/07/23 10:20:13;;;;;;;;;;;22.90;99.90;;;;;;5063065;28;19961;-86
2023/07/23 10:22:39;;;;;;;;;;;22.70;99.90;;;;;;5067383;28;19912;-86
2023/07/23 10:25:30;;;;;;;;;;;22.50;99.90;;;;;;5070918;28;19909;-86
2023/07/23 10:28:00;;;;;;;;;;;22.60;99.90;;;;;;5054620;28;19908;-86
2023/07/23 10:30:26;;;;;;;;;;;22.80;99.90;;;;;;5037577;28;19970;-86
2023/07/23 10:33:10;;;;;;;;;;;23.30;99.90;;;;;;5057948;28;19909;-86
2023/07/23 10:36:06;;;;;;;;;;;23.40;99.90;;;;;;5057933;28;20360;-86
2023/07/23 10:38:35;;;;;;;;;;;23.30;99.90;;;;;;5058511;28;19908;-86
2023/07/23 10:41:07;;;;;;;;;;;23.60;99.90;;;;;;5056437;28;19909;-86
2023/07/23 10:43:40;;;;;;;;;;;24.40;99.90;;;;;;5038909;28;19915;-86
2023/07/23 10:46:07;;;;;;;;;;;24.80;99.90;;;;;;5054890;28;19947;-86
2023/07/23 10:48:40;;;;;;;;;;;25.30;99.90;;;;;;5054555;28;19979;-87
2023/07/23 10:51:06;;;;;;;;;;;25.40;99.90;;;;;;5037492;28;19915;-87
2023/07/23 10:53:32;;;;;;;;;;;25.70;99.90;;;;;;5036876;28;20367;-87
2023/07/23 10:56:02;;;;;;;;;;;26.20;99.90;;;;;;5054195;28;19917;-87
2023/07/23 10:58:28;;;;;;;;;;;26.80;99.90;;;;;;5066502;28;19939;-87
2023/07/23 11:00:55;;;;;;;;;;;26.10;99.50;;;;;;5054444;28;19908;-86
2023/07/23 11:03:21;;;;;;;;;;;25.80;99.80;;;;;;5054253;28;19912;-87
2023/07/23 11:05:47;;;;;;;;;;;25.40;99.90;;;;;;5054078;28;19948;-87
2023/07/23 11:08:13;;;;;;;;;;;25.00;99.90;;;;;;5054078;28;20299;-87
2023/07/23 11:10:58;;;;;;;;;;;24.60;99.90;;;;;;5053373;28;19916;-87
2023/07/23 11:13:25;;;;;;;;;;;24.70;99.90;;;;;;5070451;28;20507;-87
2023/07/23 11:15:51;;;;;;;;;;;24.90;99.90;;;;;;5036654;28;19913;-87
2023/07/23 11:18:17;;;;;;;;;;;25.20;99.70;;;;;;5053497;28;20002;-86
2023/07/23 11:20:46;;;;;;;;;;;25.30;98.00;;;;;;5037025;28;19915;-87
2023/07/23 11:23:12;;;;;;;;;;;25.10;98.20;;;;;;5037478;28;19908;-87
2023/07/23 11:25:38;;;;;;;;;;;25.10;98.80;;;;;;5037571;28;20473;-86
2023/07/23 11:28:15;;;;;;;;;;;25.30;98.30;;;;;;5054011;28;19905;-86
2023/07/23 11:30:41;;;;;;;;;;;25.60;98.30;;;;;;5036765;28;19948;-86
2023/07/23 11:33:07;;;;;;;;;;;25.70;97.90;;;;;;5036966;28;19966;-86
2023/07/23 11:35:32;;;;;;;;;;;25.70;97.60;;;;;;5053143;28;19917;-88
2023/07/23 11:38:02;;;;;;;;;;;25.90;97.60;;;;;;5053232;28;19913;-86
2023/07/23 11:40:28;;;;;;;;;;;25.70;98.10;;;;;;5036421;28;20556;-87
2023/07/23 11:42:53;;;;;;;;;;;25.50;98.10;;;;;;5086782;28;19912;-87
2023/07/23 11:45:19;;;;;;;;;;;25.10;98.20;;;;;;5035746;28;19908;-86
2023/07/23 11:47:49;;;;;;;;;;;25.10;98.60;;;;;;5047978;28;19912;-87
2023/07/23 11:50:18;;;;;;;;;;;24.70;99.00;;;;;;5052497;28;20267;-86
2023/07/23 11:52:46;;;;;;;;;;;24.50;99.80;;;;;;5049747;28;19905;-86
2023/07/23 11:55:19;;;;;;;;;;;24.60;99.80;;;;;;5052392;28;19924;-87
2023/07/23 11:57:44;;;;;;;;;;;25.00;99.90;;;;;;5035764;28;19912;-87
2023/07/23 12:00:10;;;;;;;;;;;25.30;99.00;;;;;;5036005;28;19931;-86
2023/07/23 12:02:37;;;;;;;;;;;24.80;99.20;;;;;;5052180;28;19915;-87
2023/07/23 12:05:25;;;;;;;;;;;24.30;99.90;;;;;;5051534;28;20435;-86
2023/07/23 12:07:51;;;;;;;;;;;24.50;99.80;;;;;;5051565;28;19912;-87
2023/07/23 12:10:17;;;;;;;;;;;24.50;99.90;;;;;;5052171;28;19918;-86
2023/07/23 12:12:46;;;;;;;;;;;24.50;99.80;;;;;;5032788;28;19995;-86
2023/07/23 12:15:13;;;;;;;;;;;24.60;99.90;;;;;;5031140;28;20003;-87
2023/07/23 12:17:38;;;;;;;;;;;24.80;99.90;;;;;;5034740;28;19912;-86
2023/07/23 12:20:04;;;;;;;;;;;25.10;99.20;;;;;;5052046;28;19916;-86
2023/07/23 12:22:30;;;;;;;;;;;24.80;99.40;;;;;;5051635;28;20031;-86
2023/07/23 12:24:56;;;;;;;;;;;24.60;99.80;;;;;;5034737;28;19913;-87
2023/07/23 12:27:21;;;;;;;;;;;24.80;99.90;;;;;;5052020;28;20312;-86
2023/07/23 12:29:48;;;;;;;;;;;25.20;99.50;;;;;;5044034;28;19924;-87
2023/07/23 12:32:34;;;;;;;;;;;25.10;99.50;;;;;;5052218;28;19982;-87
2023/07/23 12:35:00;;;;;;;;;;;25.30;99.60;;;;;;5051539;28;20008;-86
2023/07/23 12:37:25;;;;;;;;;;;25.20;99.10;;;;;;5035790;28;20376;-87
2023/07/23 12:39:53;;;;;;;;;;;25.10;99.40;;;;;;5049044;28;20352;-87
2023/07/23 12:42:19;;;;;;;;;;;25.00;99.50;;;;;;5052117;28;19938;-87
2023/07/23 12:44:45;;;;;;;;;;;25.30;99.80;;;;;;5033950;28;19978;-87
2023/07/23 12:47:10;;;;;;;;;;;25.60;99.20;;;;;;5035112;28;20343;-87
2023/07/23 12:49:36;;;;;;;;;;;25.90;98.90;;;;;;5034374;28;19911;-87
2023/07/23 12:52:03;;;;;;;;;;;25.80;98.70;;;;;;5046705;28;19944;-88
2023/07/23 12:54:29;;;;;;;;;;;25.80;99.40;;;;;;5067206;28;19981;-87
2023/07/23 12:56:55;;;;;;;;;;;26.10;98.80;;;;;;5064126;28;19913;-87
2023/07/23 12:59:21;;;;;;;;;;;26.10;98.60;;;;;;5043644;28;19913;-88
2023/07/23 13:01:47;;;;;;;;;;;26.10;98.70;;;;;;5035136;28;19915;-87
2023/07/23 13:04:12;;;;;;;;;;;26.00;98.70;;;;;;5054411;28;20430;-87
2023/07/23 13:06:38;;;;;;;;;;;25.80;98.20;;;;;;5039066;28;19935;-87
2023/07/23 13:09:08;;;;;;;;;;;25.70;98.50;;;;;;5053102;28;19912;-87
2023/07/23 13:11:33;;;;;;;;;;;25.20;98.60;;;;;;5040367;28;19909;-87
2023/07/23 13:13:59;;;;;;;;;;;24.80;99.00;;;;;;5055269;28;19911;-87
2023/07/23 13:16:37;;;;;;;;;;;24.60;99.40;;;;;;5034388;28;19912;-87
2023/07/23 13:19:03;;;;;;;;;;;24.40;99.60;;;;;;5062905;28;19955;-86
2023/07/23 13:21:29;;;;;;;;;;;24.80;99.40;;;;;;5035665;28;19967;-87
2023/07/23 13:23:54;;;;;;;;;;;24.80;99.40;;;;;;5055439;28;19913;-87
2023/07/23 13:26:20;;;;;;;;;;;24.90;98.60;;;;;;5044580;28;19951;-87
2023/07/23 13:28:45;;;;;;;;;;;24.60;98.40;;;;;;5052622;28;19952;-87
2023/07/23 13:31:11;;;;;;;;;;;24.40;98.40;;;;;;5039264;28;19967;-87
2023/07/23 13:33:37;;;;;;;;;;;24.50;98.80;;;;;;5038871;28;19912;-87
2023/07/23 13:36:02;;;;;;;;;;;24.60;96.80;;;;;;5038923;28;19917;-86
2023/07/23 13:38:28;;;;;;;;;;;24.70;97.10;;;;;;5039386;28;19929;-86
2023/07/23 13:40:53;;;;;;;;;;;24.80;95.80;;;;;;5039655;28;19913;-87
2023/07/23 13:43:19;;;;;;;;;;;25.00;96.20;;;;;;5039591;28;20379;-87
2023/07/23 13:45:45;;;;;;;;;;;25.30;95.50;;;;;;5058265;28;19909;-87
2023/07/23 13:48:11;;;;;;;;;;;25.50;95.70;;;;;;5069520;28;20363;-87
2023/07/23 13:50:36;;;;;;;;;;;25.50;95.30;;;;;;5090860;28;19927;-87
2023/07/23 13:53:04;;;;;;;;;;;25.50;95.10;;;;;;5107377;28;19896;-87
2023/07/23 13:55:29;;;;;;;;;;;25.50;95.30;;;;;;5070235;28;19921;-86
2023/07/23 13:57:55;;;;;;;;;;;25.50;94.90;;;;;;5050825;28;19991;-86
2023/07/23 14:00:21;;;;;;;;;;;25.40;95.30;;;;;;5061091;28;20245;-86
2023/07/23 14:02:46;;;;;;;;;;;25.30;95.30;;;;;;5041890;28;19905;-86
2023/07/23 14:05:12;;;;;;;;;;;25.20;95.30;;;;;;5065428;28;20331;-87
2023/07/23 14:07:38;;;;;;;;;;;25.30;95.40;;;;;;5039689;28;19919;-87
2023/07/23 14:10:04;;;;;;;;;;;25.20;95.40;;;;;;5074129;28;19916;-87
2023/07/23 14:12:30;;;;;;;;;;;25.40;95.20;;;;;;5040421;28;19908;-87
2023/07/23 14:14:56;;;;;;;;;;;25.50;94.70;;;;;;5090426;28;19913;-87
2023/07/23 14:17:21;;;;;;;;;;;25.80;95.50;;;;;;5038009;28;19908;-87